sensor_id;sensor_type;location;lat;lon;timestamp;P1;durP1;ratioP1;P2;durP2;ratioP2
56122;SDS011;42426;46.104;19.656;2023-07-20T00:00:09;11.50;;;6.50;;
56122;SDS011;42426;46.104;19.656;2023-07-20T00:02:39;8.98;;;6.43;;
56122;SDS011;42426;46.104;19.656;2023-07-20T00:05:05;10.63;;;6.93;;
56122;SDS011;42426;46.104;19.656;2023-07-20T00:07:31;11.85;;;6.03;;
56122;SDS011;42426;46.104;19.656;2023-07-20T00:09:57;11.25;;;5.68;;
56122;SDS011;42426;46.104;19.656;2023-07-20T00:12:23;10.40;;;5.80;;
56122;SDS011;42426;46.104;19.656;2023-07-20T00:14:49;10.90;;;5.75;;
56122;SDS011;42426;46.104;19.656;2023-07-20T00:17:18;14.15;;;7.05;;
56122;SDS011;42426;46.104;19.656;2023-07-20T00:19:44;14.20;;;6.20;;
56122;SDS011;42426;46.104;19.656;2023-07-20T00:22:10;8.75;;;6.28;;
56122;SDS011;42426;46.104;19.656;2023-07-20T00:24:38;9.85;;;5.72;;
56122;SDS011;42426;46.104;19.656;2023-07-20T00:27:04;12.15;;;5.88;;
56122;SDS011;42426;46.104;19.656;2023-07-20T00:29:30;9.38;;;6.30;;
56122;SDS011;42426;46.104;19.656;2023-07-20T00:31:56;10.95;;;5.95;;
56122;SDS011;42426;46.104;19.656;2023-07-20T00:34:23;11.93;;;5.72;;
56122;SDS011;42426;46.104;19.656;2023-07-20T00:36:49;10.23;;;6.30;;
56122;SDS011;42426;46.104;19.656;2023-07-20T00:39:15;13.77;;;6.47;;
56122;SDS011;42426;46.104;19.656;2023-07-20T00:41:42;10.73;;;6.65;;
56122;SDS011;42426;46.104;19.656;2023-07-20T00:44:08;12.40;;;6.10;;
56122;SDS011;42426;46.104;19.656;2023-07-20T00:46:34;12.30;;;6.93;;
56122;SDS011;42426;46.104;19.656;2023-07-20T00:49:00;8.30;;;6.60;;
56122;SDS011;42426;46.104;19.656;2023-07-20T00:51:26;9.50;;;6.45;;
56122;SDS011;42426;46.104;19.656;2023-07-20T00:53:53;11.60;;;7.18;;
56122;SDS011;42426;46.104;19.656;2023-07-20T00:56:19;11.80;;;5.88;;
56122;SDS011;42426;46.104;19.656;2023-07-20T00:58:45;12.38;;;5.95;;
56122;SDS011;42426;46.104;19.656;2023-07-20T01:01:11;12.77;;;6.15;;
56122;SDS011;42426;46.104;19.656;2023-07-20T01:03:37;11.77;;;7.13;;
56122;SDS011;42426;46.104;19.656;2023-07-20T01:06:14;10.73;;;6.18;;
56122;SDS011;42426;46.104;19.656;2023-07-20T01:11:19;10.40;;;5.95;;
56122;SDS011;42426;46.104;19.656;2023-07-20T01:13:48;10.80;;;5.80;;
56122;SDS011;42426;46.104;19.656;2023-07-20T01:16:15;7.07;;;5.05;;
56122;SDS011;42426;46.104;19.656;2023-07-20T01:18:41;7.55;;;5.68;;
56122;SDS011;42426;46.104;19.656;2023-07-20T01:21:09;10.18;;;5.90;;
56122;SDS011;42426;46.104;19.656;2023-07-20T01:33:38;10.80;;;6.15;;
56122;SDS011;42426;46.104;19.656;2023-07-20T01:36:04;10.32;;;6.25;;
56122;SDS011;42426;46.104;19.656;2023-07-20T01:38:31;10.68;;;6.97;;
56122;SDS011;42426;46.104;19.656;2023-07-20T01:40:57;12.82;;;6.65;;
56122;SDS011;42426;46.104;19.656;2023-07-20T01:43:23;11.73;;;7.63;;
56122;SDS011;42426;46.104;19.656;2023-07-20T01:45:49;12.13;;;7.68;;
56122;SDS011;42426;46.104;19.656;2023-07-20T01:48:15;9.13;;;6.68;;
56122;SDS011;42426;46.104;19.656;2023-07-20T01:50:42;12.20;;;6.22;;
56122;SDS011;42426;46.104;19.656;2023-07-20T01:53:08;20.05;;;7.20;;
56122;SDS011;42426;46.104;19.656;2023-07-20T01:55:34;13.10;;;7.20;;
56122;SDS011;42426;46.104;19.656;2023-07-20T01:58:00;13.77;;;8.15;;
56122;SDS011;42426;46.104;19.656;2023-07-20T02:00:27;9.10;;;5.82;;
56122;SDS011;42426;46.104;19.656;2023-07-20T02:02:53;9.05;;;6.65;;
56122;SDS011;42426;46.104;19.656;2023-07-20T02:05:19;14.18;;;6.88;;
56122;SDS011;42426;46.104;19.656;2023-07-20T02:07:45;9.05;;;6.82;;
56122;SDS011;42426;46.104;19.656;2023-07-20T02:10:11;11.98;;;7.47;;
56122;SDS011;42426;46.104;19.656;2023-07-20T02:12:37;17.88;;;8.27;;
56122;SDS011;42426;46.104;19.656;2023-07-20T02:15:04;10.07;;;6.32;;
56122;SDS011;42426;46.104;19.656;2023-07-20T02:17:30;9.35;;;7.15;;
56122;SDS011;42426;46.104;19.656;2023-07-20T02:19:56;10.77;;;7.63;;
56122;SDS011;42426;46.104;19.656;2023-07-20T02:22:23;8.15;;;6.72;;
56122;SDS011;42426;46.104;19.656;2023-07-20T02:24:49;10.40;;;7.30;;
56122;SDS011;42426;46.104;19.656;2023-07-20T02:27:15;11.98;;;7.00;;
56122;SDS011;42426;46.104;19.656;2023-07-20T02:29:41;9.90;;;6.85;;
56122;SDS011;42426;46.104;19.656;2023-07-20T02:32:08;8.98;;;6.22;;
56122;SDS011;42426;46.104;19.656;2023-07-20T02:34:37;9.05;;;6.68;;
56122;SDS011;42426;46.104;19.656;2023-07-20T02:37:03;11.57;;;6.63;;
56122;SDS011;42426;46.104;19.656;2023-07-20T02:39:30;10.00;;;7.07;;
56122;SDS011;42426;46.104;19.656;2023-07-20T02:41:56;8.82;;;6.78;;
56122;SDS011;42426;46.104;19.656;2023-07-20T02:44:22;13.38;;;7.07;;
56122;SDS011;42426;46.104;19.656;2023-07-20T02:46:48;11.90;;;6.60;;
56122;SDS011;42426;46.104;19.656;2023-07-20T02:49:15;10.52;;;6.72;;
56122;SDS011;42426;46.104;19.656;2023-07-20T02:51:41;9.60;;;6.78;;
56122;SDS011;42426;46.104;19.656;2023-07-20T02:54:07;10.52;;;7.43;;
56122;SDS011;42426;46.104;19.656;2023-07-20T02:56:34;13.30;;;7.88;;
56122;SDS011;42426;46.104;19.656;2023-07-20T02:59:01;10.60;;;7.28;;
56122;SDS011;42426;46.104;19.656;2023-07-20T03:01:28;11.10;;;6.53;;
56122;SDS011;42426;46.104;19.656;2023-07-20T03:03:54;12.25;;;7.60;;
56122;SDS011;42426;46.104;19.656;2023-07-20T03:06:20;11.93;;;7.82;;
56122;SDS011;42426;46.104;19.656;2023-07-20T03:08:47;11.52;;;7.10;;
56122;SDS011;42426;46.104;19.656;2023-07-20T03:11:16;16.27;;;10.43;;
56122;SDS011;42426;46.104;19.656;2023-07-20T03:13:43;14.80;;;9.55;;
56122;SDS011;42426;46.104;19.656;2023-07-20T03:16:09;16.23;;;10.90;;
56122;SDS011;42426;46.104;19.656;2023-07-20T03:18:38;17.35;;;11.38;;
56122;SDS011;42426;46.104;19.656;2023-07-20T03:21:05;20.48;;;10.85;;
56122;SDS011;42426;46.104;19.656;2023-07-20T03:23:31;15.70;;;9.77;;
56122;SDS011;42426;46.104;19.656;2023-07-20T03:25:57;12.55;;;10.20;;
56122;SDS011;42426;46.104;19.656;2023-07-20T03:28:23;15.98;;;10.77;;
56122;SDS011;42426;46.104;19.656;2023-07-20T03:30:53;18.85;;;10.30;;
56122;SDS011;42426;46.104;19.656;2023-07-20T03:33:21;13.18;;;9.30;;
56122;SDS011;42426;46.104;19.656;2023-07-20T03:35:47;13.57;;;8.15;;
56122;SDS011;42426;46.104;19.656;2023-07-20T03:38:13;10.13;;;7.60;;
56122;SDS011;42426;46.104;19.656;2023-07-20T03:40:39;11.55;;;7.93;;
56122;SDS011;42426;46.104;19.656;2023-07-20T03:43:14;13.18;;;9.18;;
56122;SDS011;42426;46.104;19.656;2023-07-20T03:45:40;17.13;;;9.10;;
56122;SDS011;42426;46.104;19.656;2023-07-20T03:48:06;11.18;;;7.68;;
56122;SDS011;42426;46.104;19.656;2023-07-20T03:50:32;11.55;;;8.13;;
56122;SDS011;42426;46.104;19.656;2023-07-20T03:52:58;10.02;;;7.65;;
56122;SDS011;42426;46.104;19.656;2023-07-20T03:55:24;11.40;;;8.52;;
56122;SDS011;42426;46.104;19.656;2023-07-20T03:57:50;12.98;;;8.77;;
56122;SDS011;42426;46.104;19.656;2023-07-20T04:00:17;12.63;;;8.85;;
56122;SDS011;42426;46.104;19.656;2023-07-20T04:02:43;15.52;;;8.23;;
56122;SDS011;42426;46.104;19.656;2023-07-20T04:05:09;9.18;;;7.60;;
56122;SDS011;42426;46.104;19.656;2023-07-20T04:07:35;13.02;;;8.43;;
56122;SDS011;42426;46.104;19.656;2023-07-20T04:10:01;12.13;;;7.88;;
56122;SDS011;42426;46.104;19.656;2023-07-20T04:12:27;10.50;;;7.82;;
56122;SDS011;42426;46.104;19.656;2023-07-20T04:14:53;10.27;;;7.57;;
56122;SDS011;42426;46.104;19.656;2023-07-20T04:17:20;10.05;;;7.20;;
56122;SDS011;42426;46.104;19.656;2023-07-20T04:19:46;8.43;;;7.07;;
56122;SDS011;42426;46.104;19.656;2023-07-20T04:22:12;11.82;;;7.63;;
56122;SDS011;42426;46.104;19.656;2023-07-20T04:24:40;14.05;;;7.32;;
56122;SDS011;42426;46.104;19.656;2023-07-20T04:27:06;8.40;;;6.45;;
56122;SDS011;42426;46.104;19.656;2023-07-20T04:29:32;9.75;;;5.88;;
56122;SDS011;42426;46.104;19.656;2023-07-20T04:31:58;11.88;;;6.53;;
56122;SDS011;42426;46.104;19.656;2023-07-20T04:34:24;9.95;;;6.20;;
56122;SDS011;42426;46.104;19.656;2023-07-20T04:36:51;8.20;;;6.10;;
56122;SDS011;42426;46.104;19.656;2023-07-20T04:39:17;11.77;;;5.72;;
56122;SDS011;42426;46.104;19.656;2023-07-20T04:41:43;12.45;;;5.43;;
56122;SDS011;42426;46.104;19.656;2023-07-20T04:44:09;10.55;;;5.65;;
56122;SDS011;42426;46.104;19.656;2023-07-20T04:46:35;10.73;;;5.18;;
56122;SDS011;42426;46.104;19.656;2023-07-20T04:49:01;6.85;;;4.88;;
56122;SDS011;42426;46.104;19.656;2023-07-20T04:51:27;9.05;;;6.13;;
56122;SDS011;42426;46.104;19.656;2023-07-20T04:53:55;9.82;;;6.03;;
56122;SDS011;42426;46.104;19.656;2023-07-20T04:56:21;7.60;;;5.30;;
56122;SDS011;42426;46.104;19.656;2023-07-20T04:58:50;13.75;;;7.43;;
56122;SDS011;42426;46.104;19.656;2023-07-20T05:01:17;8.18;;;5.35;;
56122;SDS011;42426;46.104;19.656;2023-07-20T05:03:43;17.45;;;5.95;;
56122;SDS011;42426;46.104;19.656;2023-07-20T05:06:09;8.02;;;5.20;;
56122;SDS011;42426;46.104;19.656;2023-07-20T05:08:35;7.05;;;4.80;;
56122;SDS011;42426;46.104;19.656;2023-07-20T05:11:01;11.57;;;6.65;;
56122;SDS011;42426;46.104;19.656;2023-07-20T05:13:27;7.32;;;5.03;;
56122;SDS011;42426;46.104;19.656;2023-07-20T05:15:53;13.13;;;5.70;;
56122;SDS011;42426;46.104;19.656;2023-07-20T05:18:19;9.75;;;6.95;;
56122;SDS011;42426;46.104;19.656;2023-07-20T05:20:49;9.27;;;5.40;;
56122;SDS011;42426;46.104;19.656;2023-07-20T05:23:18;7.97;;;5.47;;
56122;SDS011;42426;46.104;19.656;2023-07-20T05:25:45;9.07;;;4.95;;
56122;SDS011;42426;46.104;19.656;2023-07-20T05:28:11;8.32;;;5.88;;
56122;SDS011;42426;46.104;19.656;2023-07-20T05:30:37;8.90;;;5.53;;
56122;SDS011;42426;46.104;19.656;2023-07-20T05:33:03;7.85;;;5.35;;
56122;SDS011;42426;46.104;19.656;2023-07-20T05:35:29;7.93;;;5.28;;
56122;SDS011;42426;46.104;19.656;2023-07-20T05:37:55;8.35;;;5.40;;
56122;SDS011;42426;46.104;19.656;2023-07-20T05:40:21;11.07;;;5.63;;
56122;SDS011;42426;46.104;19.656;2023-07-20T05:42:48;7.90;;;5.40;;
56122;SDS011;42426;46.104;19.656;2023-07-20T05:45:17;8.93;;;5.43;;
56122;SDS011;42426;46.104;19.656;2023-07-20T05:47:43;8.95;;;5.93;;
56122;SDS011;42426;46.104;19.656;2023-07-20T05:50:10;7.00;;;4.97;;
56122;SDS011;42426;46.104;19.656;2023-07-20T05:52:36;6.70;;;5.10;;
56122;SDS011;42426;46.104;19.656;2023-07-20T05:55:04;11.75;;;6.35;;
56122;SDS011;42426;46.104;19.656;2023-07-20T05:57:30;5.43;;;4.68;;
56122;SDS011;42426;46.104;19.656;2023-07-20T05:59:56;7.75;;;6.60;;
56122;SDS011;42426;46.104;19.656;2023-07-20T06:02:22;6.43;;;5.78;;
56122;SDS011;42426;46.104;19.656;2023-07-20T06:04:48;9.50;;;5.13;;
56122;SDS011;42426;46.104;19.656;2023-07-20T06:07:14;10.60;;;6.13;;
56122;SDS011;42426;46.104;19.656;2023-07-20T06:09:41;9.30;;;5.30;;
56122;SDS011;42426;46.104;19.656;2023-07-20T06:12:07;10.70;;;5.60;;
56122;SDS011;42426;46.104;19.656;2023-07-20T06:14:33;8.27;;;5.18;;
56122;SDS011;42426;46.104;19.656;2023-07-20T06:16:59;11.80;;;5.95;;
56122;SDS011;42426;46.104;19.656;2023-07-20T06:19:26;10.48;;;5.15;;
56122;SDS011;42426;46.104;19.656;2023-07-20T06:21:52;6.90;;;4.82;;
56122;SDS011;42426;46.104;19.656;2023-07-20T06:24:18;7.28;;;5.10;;
56122;SDS011;42426;46.104;19.656;2023-07-20T06:26:44;8.93;;;5.10;;
56122;SDS011;42426;46.104;19.656;2023-07-20T06:29:10;8.45;;;5.13;;
56122;SDS011;42426;46.104;19.656;2023-07-20T06:31:36;9.15;;;5.65;;
56122;SDS011;42426;46.104;19.656;2023-07-20T06:34:02;8.23;;;5.15;;
56122;SDS011;42426;46.104;19.656;2023-07-20T06:36:28;8.35;;;5.03;;
56122;SDS011;42426;46.104;19.656;2023-07-20T06:38:58;9.02;;;5.95;;
56122;SDS011;42426;46.104;19.656;2023-07-20T06:41:24;10.07;;;5.22;;
56122;SDS011;42426;46.104;19.656;2023-07-20T06:43:50;9.10;;;5.45;;
56122;SDS011;42426;46.104;19.656;2023-07-20T06:46:17;8.60;;;5.20;;
56122;SDS011;42426;46.104;19.656;2023-07-20T06:48:43;10.93;;;5.30;;
56122;SDS011;42426;46.104;19.656;2023-07-20T06:51:09;8.73;;;5.20;;
56122;SDS011;42426;46.104;19.656;2023-07-20T06:53:35;7.22;;;5.55;;
56122;SDS011;42426;46.104;19.656;2023-07-20T06:56:02;8.52;;;5.18;;
56122;SDS011;42426;46.104;19.656;2023-07-20T06:58:28;7.68;;;4.95;;
56122;SDS011;42426;46.104;19.656;2023-07-20T07:00:54;12.35;;;4.95;;
56122;SDS011;42426;46.104;19.656;2023-07-20T07:03:20;9.75;;;5.72;;
56122;SDS011;42426;46.104;19.656;2023-07-20T07:05:46;8.23;;;5.22;;
56122;SDS011;42426;46.104;19.656;2023-07-20T07:08:12;9.57;;;5.03;;
56122;SDS011;42426;46.104;19.656;2023-07-20T07:10:39;8.00;;;5.60;;
56122;SDS011;42426;46.104;19.656;2023-07-20T07:13:05;9.60;;;4.85;;
56122;SDS011;42426;46.104;19.656;2023-07-20T07:15:31;7.78;;;5.85;;
56122;SDS011;42426;46.104;19.656;2023-07-20T07:17:57;9.57;;;5.53;;
56122;SDS011;42426;46.104;19.656;2023-07-20T07:20:25;7.30;;;4.88;;
56122;SDS011;42426;46.104;19.656;2023-07-20T07:22:51;9.80;;;5.30;;
56122;SDS011;42426;46.104;19.656;2023-07-20T07:25:18;7.75;;;4.63;;
56122;SDS011;42426;46.104;19.656;2023-07-20T07:27:44;7.57;;;5.10;;
56122;SDS011;42426;46.104;19.656;2023-07-20T07:30:10;9.50;;;5.75;;
56122;SDS011;42426;46.104;19.656;2023-07-20T07:32:37;8.15;;;4.97;;
56122;SDS011;42426;46.104;19.656;2023-07-20T07:35:03;10.82;;;5.30;;
56122;SDS011;42426;46.104;19.656;2023-07-20T07:37:29;11.90;;;5.22;;
56122;SDS011;42426;46.104;19.656;2023-07-20T07:39:55;18.00;;;6.13;;
56122;SDS011;42426;46.104;19.656;2023-07-20T07:42:22;10.50;;;5.18;;
56122;SDS011;42426;46.104;19.656;2023-07-20T07:44:48;9.23;;;4.88;;
56122;SDS011;42426;46.104;19.656;2023-07-20T07:47:14;10.65;;;5.88;;
56122;SDS011;42426;46.104;19.656;2023-07-20T07:49:40;8.32;;;5.35;;
56122;SDS011;42426;46.104;19.656;2023-07-20T07:52:06;10.00;;;5.00;;
56122;SDS011;42426;46.104;19.656;2023-07-20T07:54:33;11.00;;;5.10;;
56122;SDS011;42426;46.104;19.656;2023-07-20T07:56:59;8.00;;;5.07;;
56122;SDS011;42426;46.104;19.656;2023-07-20T07:59:25;10.50;;;6.32;;
56122;SDS011;42426;46.104;19.656;2023-07-20T08:01:51;8.90;;;5.35;;
56122;SDS011;42426;46.104;19.656;2023-07-20T08:04:18;8.40;;;5.63;;
56122;SDS011;42426;46.104;19.656;2023-07-20T08:06:44;9.73;;;5.38;;
56122;SDS011;42426;46.104;19.656;2023-07-20T08:09:10;7.43;;;5.22;;
56122;SDS011;42426;46.104;19.656;2023-07-20T08:11:38;7.38;;;5.38;;
56122;SDS011;42426;46.104;19.656;2023-07-20T08:14:05;8.13;;;5.00;;
56122;SDS011;42426;46.104;19.656;2023-07-20T08:16:31;16.45;;;6.15;;
56122;SDS011;42426;46.104;19.656;2023-07-20T08:18:57;13.07;;;6.18;;
56122;SDS011;42426;46.104;19.656;2023-07-20T08:21:23;9.98;;;5.00;;
56122;SDS011;42426;46.104;19.656;2023-07-20T08:23:49;6.80;;;5.15;;
56122;SDS011;42426;46.104;19.656;2023-07-20T08:26:15;7.18;;;5.65;;
56122;SDS011;42426;46.104;19.656;2023-07-20T08:28:42;10.98;;;5.00;;
56122;SDS011;42426;46.104;19.656;2023-07-20T08:31:08;12.63;;;6.18;;
56122;SDS011;42426;46.104;19.656;2023-07-20T08:33:34;8.77;;;6.40;;
56122;SDS011;42426;46.104;19.656;2023-07-20T08:36:01;8.93;;;5.30;;
56122;SDS011;42426;46.104;19.656;2023-07-20T08:38:28;9.55;;;5.60;;
56122;SDS011;42426;46.104;19.656;2023-07-20T08:40:54;7.55;;;6.03;;
56122;SDS011;42426;46.104;19.656;2023-07-20T08:43:21;11.73;;;5.68;;
56122;SDS011;42426;46.104;19.656;2023-07-20T08:45:49;9.27;;;4.85;;
56122;SDS011;42426;46.104;19.656;2023-07-20T08:48:15;12.13;;;5.60;;
56122;SDS011;42426;46.104;19.656;2023-07-20T08:50:43;9.60;;;5.13;;
56122;SDS011;42426;46.104;19.656;2023-07-20T08:53:09;8.93;;;5.60;;
56122;SDS011;42426;46.104;19.656;2023-07-20T08:55:36;7.15;;;5.38;;
56122;SDS011;42426;46.104;19.656;2023-07-20T08:58:02;7.70;;;5.20;;
56122;SDS011;42426;46.104;19.656;2023-07-20T09:00:29;8.15;;;5.00;;
56122;SDS011;42426;46.104;19.656;2023-07-20T09:02:55;9.93;;;5.55;;
56122;SDS011;42426;46.104;19.656;2023-07-20T09:05:22;12.25;;;5.72;;
56122;SDS011;42426;46.104;19.656;2023-07-20T09:07:48;9.38;;;5.22;;
56122;SDS011;42426;46.104;19.656;2023-07-20T09:10:14;13.48;;;5.75;;
56122;SDS011;42426;46.104;19.656;2023-07-20T09:12:42;18.48;;;5.68;;
56122;SDS011;42426;46.104;19.656;2023-07-20T09:15:09;7.97;;;4.63;;
56122;SDS011;42426;46.104;19.656;2023-07-20T09:17:35;7.00;;;5.25;;
56122;SDS011;42426;46.104;19.656;2023-07-20T09:20:05;7.47;;;4.68;;
56122;SDS011;42426;46.104;19.656;2023-07-20T09:22:35;9.57;;;5.87;;
56122;SDS011;42426;46.104;19.656;2023-07-20T09:25:05;6.70;;;4.78;;
56122;SDS011;42426;46.104;19.656;2023-07-20T09:27:35;6.93;;;5.15;;
56122;SDS011;42426;46.104;19.656;2023-07-20T09:30:02;10.80;;;5.28;;
56122;SDS011;42426;46.104;19.656;2023-07-20T09:32:29;6.43;;;4.80;;
56122;SDS011;42426;46.104;19.656;2023-07-20T09:34:55;9.75;;;5.22;;
56122;SDS011;42426;46.104;19.656;2023-07-20T09:37:21;9.27;;;5.10;;
56122;SDS011;42426;46.104;19.656;2023-07-20T09:39:48;6.35;;;4.80;;
56122;SDS011;42426;46.104;19.656;2023-07-20T09:42:14;8.57;;;5.53;;
56122;SDS011;42426;46.104;19.656;2023-07-20T09:44:43;9.00;;;5.60;;
56122;SDS011;42426;46.104;19.656;2023-07-20T09:47:09;9.05;;;5.32;;
56122;SDS011;42426;46.104;19.656;2023-07-20T09:49:41;21.30;;;5.85;;
56122;SDS011;42426;46.104;19.656;2023-07-20T09:52:11;8.65;;;5.38;;
56122;SDS011;42426;46.104;19.656;2023-07-20T09:54:38;11.00;;;5.00;;
56122;SDS011;42426;46.104;19.656;2023-07-20T09:57:06;11.10;;;5.50;;
56122;SDS011;42426;46.104;19.656;2023-07-20T10:02:04;9.95;;;5.85;;
56122;SDS011;42426;46.104;19.656;2023-07-20T10:04:34;16.90;;;6.30;;
56122;SDS011;42426;46.104;19.656;2023-07-20T10:07:02;11.75;;;5.45;;
56122;SDS011;42426;46.104;19.656;2023-07-20T10:09:31;11.90;;;5.82;;
56122;SDS011;42426;46.104;19.656;2023-07-20T10:11:57;8.27;;;4.80;;
56122;SDS011;42426;46.104;19.656;2023-07-20T10:14:24;10.07;;;5.70;;
56122;SDS011;42426;46.104;19.656;2023-07-20T10:16:58;6.95;;;4.78;;
56122;SDS011;42426;46.104;19.656;2023-07-20T10:19:29;13.32;;;5.82;;
56122;SDS011;42426;46.104;19.656;2023-07-20T10:22:03;6.47;;;4.47;;
56122;SDS011;42426;46.104;19.656;2023-07-20T10:24:33;10.32;;;5.85;;
56122;SDS011;42426;46.104;19.656;2023-07-20T10:27:00;8.02;;;5.38;;
56122;SDS011;42426;46.104;19.656;2023-07-20T10:29:26;8.10;;;5.05;;
56122;SDS011;42426;46.104;19.656;2023-07-20T10:31:53;8.35;;;5.55;;
56122;SDS011;42426;46.104;19.656;2023-07-20T10:34:20;14.43;;;6.22;;
56122;SDS011;42426;46.104;19.656;2023-07-20T10:36:47;19.15;;;7.03;;
56122;SDS011;42426;46.104;19.656;2023-07-20T10:42:08;17.30;;;6.13;;
56122;SDS011;42426;46.104;19.656;2023-07-20T10:44:36;15.25;;;7.20;;
56122;SDS011;42426;46.104;19.656;2023-07-20T10:47:03;7.97;;;6.22;;
56122;SDS011;42426;46.104;19.656;2023-07-20T10:49:34;17.25;;;7.18;;
56122;SDS011;42426;46.104;19.656;2023-07-20T10:52:04;13.35;;;6.03;;
56122;SDS011;42426;46.104;19.656;2023-07-20T10:57:22;12.55;;;5.43;;
56122;SDS011;42426;46.104;19.656;2023-07-20T10:59:48;9.93;;;5.25;;
56122;SDS011;42426;46.104;19.656;2023-07-20T11:02:17;11.07;;;5.88;;
56122;SDS011;42426;46.104;19.656;2023-07-20T11:04:44;9.65;;;5.57;;
56122;SDS011;42426;46.104;19.656;2023-07-20T11:07:21;9.98;;;5.28;;
56122;SDS011;42426;46.104;19.656;2023-07-20T11:10:12;8.13;;;5.07;;
56122;SDS011;42426;46.104;19.656;2023-07-20T11:12:39;11.98;;;5.80;;
56122;SDS011;42426;46.104;19.656;2023-07-20T11:15:05;7.50;;;4.95;;
56122;SDS011;42426;46.104;19.656;2023-07-20T11:17:31;7.72;;;5.22;;
56122;SDS011;42426;46.104;19.656;2023-07-20T11:19:58;15.20;;;5.65;;
56122;SDS011;42426;46.104;19.656;2023-07-20T11:22:26;8.30;;;5.30;;
56122;SDS011;42426;46.104;19.656;2023-07-20T11:24:55;10.30;;;5.47;;
56122;SDS011;42426;46.104;19.656;2023-07-20T11:27:21;11.88;;;5.20;;
56122;SDS011;42426;46.104;19.656;2023-07-20T11:29:47;8.00;;;4.32;;
56122;SDS011;42426;46.104;19.656;2023-07-20T11:32:24;9.07;;;4.75;;
56122;SDS011;42426;46.104;19.656;2023-07-20T11:34:50;15.65;;;5.68;;
56122;SDS011;42426;46.104;19.656;2023-07-20T11:37:16;7.07;;;5.05;;
56122;SDS011;42426;46.104;19.656;2023-07-20T11:39:43;11.27;;;5.57;;
56122;SDS011;42426;46.104;19.656;2023-07-20T11:42:09;11.02;;;5.53;;
56122;SDS011;42426;46.104;19.656;2023-07-20T11:44:35;9.45;;;5.53;;
56122;SDS011;42426;46.104;19.656;2023-07-20T11:49:35;9.75;;;4.90;;
56122;SDS011;42426;46.104;19.656;2023-07-20T11:52:02;6.60;;;4.75;;
56122;SDS011;42426;46.104;19.656;2023-07-20T11:54:28;7.32;;;5.15;;
56122;SDS011;42426;46.104;19.656;2023-07-20T11:56:54;6.20;;;4.95;;
56122;SDS011;42426;46.104;19.656;2023-07-20T11:59:21;7.65;;;5.00;;
56122;SDS011;42426;46.104;19.656;2023-07-20T12:01:47;7.90;;;5.80;;
56122;SDS011;42426;46.104;19.656;2023-07-20T12:04:13;8.50;;;4.80;;
56122;SDS011;42426;46.104;19.656;2023-07-20T12:06:39;7.22;;;5.25;;
56122;SDS011;42426;46.104;19.656;2023-07-20T12:09:05;13.95;;;5.38;;
56122;SDS011;42426;46.104;19.656;2023-07-20T12:11:32;11.48;;;5.10;;
56122;SDS011;42426;46.104;19.656;2023-07-20T12:13:58;7.13;;;4.97;;
56122;SDS011;42426;46.104;19.656;2023-07-20T12:16:26;11.02;;;4.95;;
56122;SDS011;42426;46.104;19.656;2023-07-20T12:18:59;6.72;;;4.80;;
56122;SDS011;42426;46.104;19.656;2023-07-20T12:21:26;6.32;;;4.65;;
56122;SDS011;42426;46.104;19.656;2023-07-20T12:23:52;7.38;;;4.63;;
56122;SDS011;42426;46.104;19.656;2023-07-20T12:26:19;8.48;;;5.18;;
56122;SDS011;42426;46.104;19.656;2023-07-20T12:28:48;7.30;;;4.82;;
56122;SDS011;42426;46.104;19.656;2023-07-20T12:31:15;8.48;;;5.30;;
56122;SDS011;42426;46.104;19.656;2023-07-20T12:33:41;6.05;;;4.47;;
56122;SDS011;42426;46.104;19.656;2023-07-20T12:36:08;9.98;;;5.75;;
56122;SDS011;42426;46.104;19.656;2023-07-20T12:38:34;8.73;;;4.97;;
56122;SDS011;42426;46.104;19.656;2023-07-20T12:41:01;12.20;;;5.55;;
56122;SDS011;42426;46.104;19.656;2023-07-20T12:43:27;9.20;;;5.60;;
56122;SDS011;42426;46.104;19.656;2023-07-20T12:45:54;10.43;;;4.82;;
56122;SDS011;42426;46.104;19.656;2023-07-20T12:48:20;11.15;;;4.80;;
56122;SDS011;42426;46.104;19.656;2023-07-20T12:50:46;9.43;;;4.75;;
56122;SDS011;42426;46.104;19.656;2023-07-20T12:53:13;5.60;;;4.93;;
56122;SDS011;42426;46.104;19.656;2023-07-20T12:55:39;6.88;;;5.07;;
56122;SDS011;42426;46.104;19.656;2023-07-20T12:58:06;7.40;;;4.68;;
56122;SDS011;42426;46.104;19.656;2023-07-20T13:00:32;7.10;;;4.72;;
56122;SDS011;42426;46.104;19.656;2023-07-20T13:02:58;5.45;;;4.72;;
56122;SDS011;42426;46.104;19.656;2023-07-20T13:05:25;9.32;;;5.95;;
56122;SDS011;42426;46.104;19.656;2023-07-20T13:07:51;8.77;;;4.95;;
56122;SDS011;42426;46.104;19.656;2023-07-20T13:10:17;7.85;;;5.20;;
56122;SDS011;42426;46.104;19.656;2023-07-20T13:12:43;8.38;;;5.32;;
56122;SDS011;42426;46.104;19.656;2023-07-20T13:15:10;6.15;;;4.80;;
56122;SDS011;42426;46.104;19.656;2023-07-20T13:17:37;9.25;;;5.85;;
56122;SDS011;42426;46.104;19.656;2023-07-20T13:20:04;12.88;;;5.75;;
56122;SDS011;42426;46.104;19.656;2023-07-20T13:22:31;13.57;;;5.90;;
56122;SDS011;42426;46.104;19.656;2023-07-20T13:24:57;12.38;;;6.43;;
56122;SDS011;42426;46.104;19.656;2023-07-20T13:27:23;16.92;;;7.82;;
56122;SDS011;42426;46.104;19.656;2023-07-20T13:29:51;8.88;;;6.72;;
56122;SDS011;42426;46.104;19.656;2023-07-20T13:32:18;8.07;;;6.22;;
56122;SDS011;42426;46.104;19.656;2023-07-20T13:34:45;8.80;;;5.57;;
56122;SDS011;42426;46.104;19.656;2023-07-20T13:37:11;12.32;;;5.88;;
56122;SDS011;42426;46.104;19.656;2023-07-20T13:39:37;13.85;;;6.07;;
56122;SDS011;42426;46.104;19.656;2023-07-20T13:42:04;9.05;;;5.55;;
56122;SDS011;42426;46.104;19.656;2023-07-20T13:44:31;10.18;;;5.53;;
56122;SDS011;42426;46.104;19.656;2023-07-20T13:46:57;10.10;;;5.30;;
56122;SDS011;42426;46.104;19.656;2023-07-20T13:49:23;7.03;;;4.50;;
56122;SDS011;42426;46.104;19.656;2023-07-20T13:51:49;9.27;;;5.50;;
56122;SDS011;42426;46.104;19.656;2023-07-20T13:54:15;6.60;;;5.00;;
56122;SDS011;42426;46.104;19.656;2023-07-20T13:56:41;6.57;;;4.15;;
56122;SDS011;42426;46.104;19.656;2023-07-20T13:59:07;5.18;;;4.22;;
56122;SDS011;42426;46.104;19.656;2023-07-20T14:01:33;60.47;;;10.70;;
56122;SDS011;42426;46.104;19.656;2023-07-20T14:04:00;4.88;;;4.30;;
56122;SDS011;42426;46.104;19.656;2023-07-20T14:06:29;7.88;;;4.53;;
56122;SDS011;42426;46.104;19.656;2023-07-20T14:08:55;10.02;;;4.88;;
56122;SDS011;42426;46.104;19.656;2023-07-20T14:11:22;7.93;;;4.80;;
56122;SDS011;42426;46.104;19.656;2023-07-20T14:13:49;6.45;;;4.70;;
56122;SDS011;42426;46.104;19.656;2023-07-20T14:16:16;6.25;;;4.30;;
56122;SDS011;42426;46.104;19.656;2023-07-20T14:18:42;5.90;;;4.90;;
56122;SDS011;42426;46.104;19.656;2023-07-20T14:21:11;7.38;;;5.50;;
56122;SDS011;42426;46.104;19.656;2023-07-20T14:23:37;5.78;;;5.15;;
56122;SDS011;42426;46.104;19.656;2023-07-20T14:26:02;6.35;;;4.57;;
56122;SDS011;42426;46.104;19.656;2023-07-20T14:28:30;7.40;;;4.50;;
56122;SDS011;42426;46.104;19.656;2023-07-20T14:30:56;9.05;;;4.75;;
56122;SDS011;42426;46.104;19.656;2023-07-20T14:33:22;11.05;;;5.13;;
56122;SDS011;42426;46.104;19.656;2023-07-20T14:35:48;6.85;;;4.47;;
56122;SDS011;42426;46.104;19.656;2023-07-20T14:38:14;7.30;;;4.43;;
56122;SDS011;42426;46.104;19.656;2023-07-20T14:40:40;7.40;;;4.50;;
56122;SDS011;42426;46.104;19.656;2023-07-20T14:43:06;5.78;;;4.15;;
56122;SDS011;42426;46.104;19.656;2023-07-20T14:45:32;6.40;;;4.93;;
56122;SDS011;42426;46.104;19.656;2023-07-20T14:47:58;5.55;;;4.80;;